createdAt,value
2018-12-30T00:00:20.177Z,1.27
2018-12-30T00:02:48.584Z,1.30
2018-12-30T00:05:17.584Z,2.20
2018-12-30T00:07:46.078Z,1.50
2018-12-30T00:10:14.473Z,1.10
2018-12-30T00:12:42.956Z,0.90
2018-12-30T00:15:11.687Z,1.10
2018-12-30T00:17:40.192Z,1.20
2018-12-30T00:20:08.564Z,0.97
2018-12-30T00:22:37.066Z,1.10
2018-12-30T00:25:05.698Z,1.33
2018-12-30T00:27:34.158Z,1.17
2018-12-30T00:30:02.584Z,1.10
2018-12-30T00:32:31.122Z,1.13
2018-12-30T00:34:59.486Z,0.80
2018-12-30T00:37:27.962Z,0.73
2018-12-30T00:39:56.404Z,0.83
2018-12-30T00:42:24.884Z,1.47
2018-12-30T00:44:53.552Z,1.30
2018-12-30T00:47:21.943Z,1.20
2018-12-30T00:49:50.430Z,1.10
2018-12-30T00:52:18.871Z,0.90
2018-12-30T00:54:47.249Z,1.30
2018-12-30T00:57:15.659Z,1.20
2018-12-30T00:59:44.412Z,1.00
2018-12-30T01:02:13.012Z,1.30
2018-12-30T01:04:41.518Z,1.33
2018-12-30T01:07:11.041Z,0.93
2018-12-30T01:09:39.664Z,1.30
2018-12-30T01:12:08.108Z,1.70
2018-12-30T01:14:36.486Z,0.73
2018-12-30T01:17:04.883Z,1.10
2018-12-30T01:19:33.342Z,1.10
2018-12-30T01:22:01.703Z,0.60
2018-12-30T01:24:30.172Z,1.00
2018-12-30T01:26:58.616Z,0.90
2018-12-30T01:29:27.094Z,1.20
2018-12-30T01:31:55.584Z,1.00
2018-12-30T01:34:24.032Z,0.73
2018-12-30T01:36:52.491Z,1.00
2018-12-30T01:39:20.940Z,1.13
2018-12-30T01:41:49.503Z,0.93
2018-12-30T01:44:17.959Z,0.53
2018-12-30T01:46:46.412Z,1.13
2018-12-30T01:49:14.901Z,1.13
2018-12-30T01:51:43.323Z,0.67
2018-12-30T01:54:12.079Z,0.87
2018-12-30T01:56:40.504Z,0.77
2018-12-30T01:59:09.175Z,0.80
2018-12-30T02:01:37.604Z,0.60
2018-12-30T02:04:06.041Z,0.40
2018-12-30T02:06:34.432Z,0.80
2018-12-30T02:09:03.839Z,0.30
2018-12-30T02:11:32.235Z,0.40
2018-12-30T02:14:00.725Z,0.50
2018-12-30T02:16:29.123Z,0.50
2018-12-30T02:18:57.488Z,0.60
2018-12-30T02:21:26.149Z,0.73
2018-12-30T02:23:54.505Z,0.40
2018-12-30T02:26:22.904Z,0.70
2018-12-30T02:28:51.414Z,0.60
2018-12-30T02:31:19.851Z,0.97
2018-12-30T02:33:48.643Z,0.70
2018-12-30T02:36:17.062Z,0.30
2018-12-30T02:38:45.453Z,0.47
2018-12-30T02:41:13.907Z,0.63
2018-12-30T02:43:42.329Z,0.50
2018-12-30T02:46:11.110Z,0.60
2018-12-30T02:48:39.748Z,0.70
2018-12-30T02:51:08.143Z,0.83
2018-12-30T02:53:36.528Z,0.30
2018-12-30T02:56:05.010Z,0.97
2018-12-30T02:58:33.865Z,0.47
2018-12-30T03:01:02.303Z,0.50
2018-12-30T03:03:30.848Z,0.63
2018-12-30T03:05:59.307Z,1.20
2018-12-30T03:08:27.674Z,0.53
2018-12-30T03:10:56.470Z,0.80
2018-12-30T03:13:24.851Z,0.67
2018-12-30T03:15:53.231Z,0.70
2018-12-30T03:18:21.634Z,0.80
2018-12-30T03:20:50.020Z,0.90
2018-12-30T03:23:18.759Z,1.20
2018-12-30T03:25:47.139Z,0.90
2018-12-30T03:28:15.512Z,1.20
2018-12-30T03:30:44.256Z,0.97
2018-12-30T03:33:12.708Z,0.67
2018-12-30T03:35:41.115Z,0.63
2018-12-30T03:38:09.478Z,1.50
2018-12-30T03:40:37.854Z,1.30
2018-12-30T03:43:06.299Z,1.57
2018-12-30T03:45:34.694Z,1.20
2018-12-30T03:48:03.039Z,1.30
2018-12-30T03:50:31.543Z,1.53
2018-12-30T03:53:00.123Z,1.20
2018-12-30T03:55:30.984Z,1.57
2018-12-30T03:57:58.628Z,1.23
2018-12-30T04:00:27.099Z,1.03
2018-12-30T04:05:51.195Z,1.30
2018-12-30T04:08:19.555Z,1.03
2018-12-30T04:10:47.923Z,1.43
2018-12-30T04:13:55.996Z,1.47
2018-12-30T04:16:24.413Z,0.93
2018-12-30T04:18:52.796Z,1.83
2018-12-30T04:21:21.213Z,2.17
2018-12-30T04:23:49.586Z,2.00
2018-12-30T04:26:18.106Z,2.43
2018-12-30T04:28:46.479Z,2.20
2018-12-30T04:31:14.858Z,1.70
2018-12-30T04:33:43.235Z,2.00
2018-12-30T04:36:11.590Z,2.43
2018-12-30T04:38:40.055Z,1.10
2018-12-30T04:41:08.411Z,2.60
2018-12-30T04:43:36.780Z,2.70
2018-12-30T04:46:05.146Z,2.63
2018-12-30T04:48:35.557Z,2.53
2018-12-30T04:51:03.634Z,2.53
2018-12-30T04:53:31.999Z,2.83
2018-12-30T04:56:00.512Z,2.23
2018-12-30T04:58:28.891Z,1.50
2018-12-30T05:01:28.109Z,2.27
2018-12-30T05:03:56.514Z,1.93
2018-12-30T05:06:25.033Z,1.47
2018-12-30T05:08:53.425Z,2.27
2018-12-30T05:11:21.837Z,1.43
2018-12-30T05:13:50.183Z,1.63
2018-12-30T05:16:18.581Z,1.50
2018-12-30T05:18:46.938Z,2.20
2018-12-30T05:21:15.326Z,2.00
2018-12-30T05:23:43.761Z,1.53
2018-12-30T05:26:12.177Z,1.97
2018-12-30T05:28:40.547Z,1.00
2018-12-30T05:31:08.938Z,1.90
2018-12-30T05:33:37.341Z,2.37
2018-12-30T05:36:05.706Z,1.73
2018-12-30T05:38:34.103Z,2.00
2018-12-30T05:41:02.492Z,1.30
2018-12-30T05:43:30.860Z,1.47
2018-12-30T05:45:59.238Z,1.20
2018-12-30T05:48:27.594Z,1.03
2018-12-30T05:50:55.980Z,1.63
2018-12-30T05:53:26.691Z,1.50
2018-12-30T05:55:55.087Z,1.63
2018-12-30T05:58:23.492Z,1.00
2018-12-30T06:00:51.901Z,1.13
2018-12-30T06:03:20.263Z,1.90
2018-12-30T06:05:48.687Z,1.20
2018-12-30T06:08:17.143Z,0.97
2018-12-30T06:10:45.491Z,1.43
2018-12-30T06:13:13.867Z,1.23
2018-12-30T06:15:42.240Z,1.10
2018-12-30T06:18:10.609Z,1.30
2018-12-30T06:20:38.998Z,1.50
2018-12-30T06:23:07.375Z,1.53
2018-12-30T06:25:35.766Z,1.73
2018-12-30T06:28:04.456Z,1.33
2018-12-30T06:30:32.814Z,1.50
2018-12-30T06:33:01.189Z,0.73
2018-12-30T06:35:29.592Z,1.30
2018-12-30T06:37:57.952Z,1.20
2018-12-30T06:40:26.337Z,1.10
2018-12-30T06:42:54.703Z,1.40
2018-12-30T06:45:23.093Z,1.00
2018-12-30T06:47:51.447Z,1.00
2018-12-30T06:50:19.832Z,1.40
2018-12-30T06:52:48.209Z,1.20
2018-12-30T06:55:16.591Z,1.50
2018-12-30T06:57:44.958Z,1.10
2018-12-30T07:00:13.359Z,1.20
2018-12-30T07:02:41.747Z,1.30
2018-12-30T07:05:10.210Z,0.57
2018-12-30T07:07:38.607Z,1.23
2018-12-30T07:10:07.077Z,0.90
2018-12-30T07:12:35.440Z,1.13
2018-12-30T07:15:04.024Z,1.47
2018-12-30T07:17:32.371Z,0.67
2018-12-30T07:20:00.765Z,1.23
2018-12-30T07:22:29.140Z,0.83
2018-12-30T07:24:57.508Z,1.10
2018-12-30T07:27:25.870Z,0.93
2018-12-30T07:29:54.266Z,0.83
2018-12-30T07:32:22.626Z,1.07
2018-12-30T07:34:51.060Z,1.80
2018-12-30T07:37:19.477Z,1.00
2018-12-30T07:39:47.834Z,1.57
2018-12-30T07:42:16.245Z,1.50
2018-12-30T07:44:44.599Z,1.20
2018-12-30T07:47:13.179Z,1.17
2018-12-30T07:49:41.645Z,1.00
2018-12-30T07:52:10.043Z,1.20
2018-12-30T07:54:38.535Z,0.90
2018-12-30T07:57:06.910Z,0.90
2018-12-30T07:59:35.362Z,1.20
2018-12-30T08:02:03.727Z,1.17
2018-12-30T08:04:32.212Z,1.30
2018-12-30T08:07:00.653Z,0.80
2018-12-30T08:09:29.080Z,1.37
2018-12-30T08:11:57.426Z,1.10
2018-12-30T08:14:25.912Z,1.50
2018-12-30T08:16:54.411Z,1.50
2018-12-30T08:19:22.795Z,1.20
2018-12-30T08:21:51.158Z,1.20
2018-12-30T08:24:19.540Z,0.80
2018-12-30T08:26:47.891Z,1.17
2018-12-30T08:29:16.315Z,1.53
2018-12-30T08:31:47.780Z,1.50
2018-12-30T08:34:16.152Z,1.47
2018-12-30T08:36:52.984Z,1.40
2018-12-30T08:39:26.893Z,1.73
2018-12-30T08:41:58.600Z,1.63
2018-12-30T08:44:30.905Z,1.27
2018-12-30T08:47:06.245Z,1.17
2018-12-30T08:49:39.464Z,1.87
2018-12-30T08:52:10.497Z,1.47
2018-12-30T08:54:42.058Z,1.50
2018-12-30T08:57:14.301Z,1.70
2018-12-30T08:59:45.762Z,2.13
2018-12-30T09:02:18.155Z,1.47
2018-12-30T09:04:46.772Z,1.57
2018-12-30T09:07:15.181Z,1.87
2018-12-30T09:09:43.711Z,1.37
2018-12-30T09:12:12.069Z,1.70
2018-12-30T09:14:40.558Z,1.50
2018-12-30T09:17:08.944Z,2.03
2018-12-30T09:19:37.312Z,1.27
2018-12-30T09:22:05.819Z,1.73
2018-12-30T09:24:34.208Z,2.27
2018-12-30T09:27:02.597Z,1.17
2018-12-30T09:29:30.979Z,1.50
2018-12-30T09:31:59.432Z,1.80
2018-12-30T09:34:27.890Z,1.90
2018-12-30T09:36:56.269Z,1.50
2018-12-30T09:39:24.653Z,1.93
2018-12-30T09:41:53.068Z,1.50
2018-12-30T09:44:21.438Z,2.10
2018-12-30T09:46:49.994Z,1.83
2018-12-30T09:49:18.462Z,1.30
2018-12-30T09:51:46.841Z,1.40
2018-12-30T09:54:15.291Z,2.03
2018-12-30T09:56:43.737Z,2.13
2018-12-30T09:59:12.204Z,2.43
2018-12-30T10:01:40.590Z,2.00
2018-12-30T10:04:10.281Z,1.67
2018-12-30T10:06:41.674Z,1.77
2018-12-30T10:09:10.161Z,1.70
2018-12-30T10:11:38.533Z,1.50
2018-12-30T10:14:06.930Z,1.70
2018-12-30T10:16:37.578Z,1.67
2018-12-30T10:19:09.103Z,1.53
2018-12-30T10:21:39.130Z,1.60
2018-12-30T10:24:09.646Z,2.10
2018-12-30T10:26:40.393Z,1.40
2018-12-30T10:29:08.845Z,1.73
2018-12-30T10:31:38.879Z,1.70
2018-12-30T10:34:07.347Z,1.20
2018-12-30T10:36:35.943Z,1.57
2018-12-30T10:39:05.439Z,1.30
2018-12-30T10:41:33.885Z,1.43
2018-12-30T10:44:02.375Z,2.13
2018-12-30T10:46:31.013Z,2.20
2018-12-30T10:48:59.392Z,1.70
2018-12-30T10:51:27.833Z,2.20
2018-12-30T10:54:00.647Z,1.20
2018-12-30T10:56:26.526Z,1.33
2018-12-30T10:58:54.929Z,1.10
2018-12-30T11:01:23.324Z,1.30
2018-12-30T11:03:51.819Z,1.27
2018-12-30T11:06:20.290Z,2.17
2018-12-30T11:08:49.623Z,2.53
2018-12-30T11:11:18.081Z,1.40
2018-12-30T11:13:46.595Z,2.27
2018-12-30T11:16:18.368Z,1.70
2018-12-30T11:18:47.969Z,1.83
2018-12-30T11:21:16.542Z,0.97
2018-12-30T11:23:44.941Z,1.37
2018-12-30T11:26:13.526Z,1.17
2018-12-30T11:28:42.139Z,2.07
2018-12-30T11:31:10.844Z,1.90
2018-12-30T11:33:39.343Z,1.77
2018-12-30T11:36:07.788Z,0.77
2018-12-30T11:38:36.318Z,1.57
2018-12-30T11:41:04.834Z,1.30
2018-12-30T11:43:33.409Z,1.70
2018-12-30T11:46:01.993Z,1.73
2018-12-30T11:48:30.409Z,1.57
2018-12-30T11:50:58.841Z,1.97
2018-12-30T11:53:27.291Z,1.40
2018-12-30T11:55:55.796Z,1.70
2018-12-30T11:58:25.257Z,1.60
2018-12-30T12:00:56.586Z,1.13
2018-12-30T12:03:24.990Z,1.70
2018-12-30T12:05:53.543Z,1.80
2018-12-30T12:08:22.239Z,1.73
2018-12-30T12:10:50.631Z,1.43
2018-12-30T12:13:19.299Z,1.40
2018-12-30T12:15:47.711Z,1.53
2018-12-30T12:18:17.566Z,1.67
2018-12-30T12:20:48.890Z,1.43
2018-12-30T12:23:17.296Z,1.37
2018-12-30T12:25:45.719Z,1.70
2018-12-30T12:28:14.209Z,1.57
2018-12-30T12:30:42.602Z,1.30
2018-12-30T12:33:11.537Z,1.93
2018-12-30T12:35:41.071Z,2.20
2018-12-30T12:38:09.715Z,1.80
2018-12-30T12:40:38.191Z,1.83
2018-12-30T12:43:06.584Z,1.40
2018-12-30T12:45:35.143Z,2.07
2018-12-30T12:48:05.189Z,1.30
2018-12-30T12:50:33.581Z,1.70
2018-12-30T12:53:02.012Z,1.73
2018-12-30T12:55:30.645Z,1.30
2018-12-30T12:57:59.226Z,1.50
2018-12-30T13:00:27.699Z,1.97
2018-12-30T13:02:56.192Z,1.53
2018-12-30T13:05:24.657Z,1.20
2018-12-30T13:07:53.144Z,1.53
2018-12-30T13:10:21.636Z,1.40
2018-12-30T13:12:50.082Z,1.80
2018-12-30T13:15:18.529Z,1.70
2018-12-30T13:17:47.011Z,2.33
2018-12-30T13:20:15.432Z,2.40
2018-12-30T13:22:45.145Z,1.67
2018-12-30T13:25:13.587Z,2.40
2018-12-30T13:27:42.071Z,1.43
2018-12-30T13:30:10.531Z,2.10
2018-12-30T13:32:38.933Z,1.80
2018-12-30T13:35:07.366Z,1.90
2018-12-30T13:37:35.750Z,1.20
2018-12-30T13:40:04.243Z,1.90
2018-12-30T13:42:32.677Z,1.73
2018-12-30T13:45:01.146Z,1.87
2018-12-30T13:47:31.238Z,1.53
2018-12-30T13:49:59.664Z,1.37
2018-12-30T13:52:28.053Z,1.63
2018-12-30T13:54:56.567Z,1.53
2018-12-30T13:57:24.974Z,1.90
2018-12-30T13:59:53.364Z,1.60
2018-12-30T14:02:21.833Z,2.07
2018-12-30T14:04:50.234Z,1.43
2018-12-30T14:07:18.668Z,1.87
2018-12-30T14:09:47.043Z,1.60
2018-12-30T14:12:15.434Z,1.63
2018-12-30T14:14:43.958Z,2.13
2018-12-30T14:17:12.418Z,1.97
2018-12-30T14:19:40.911Z,1.80
2018-12-30T14:22:09.311Z,3.17
2018-12-30T14:24:37.740Z,1.77
2018-12-30T14:27:06.777Z,2.03
2018-12-30T14:29:35.205Z,1.83
2018-12-30T14:32:03.683Z,1.70
2018-12-30T14:34:32.085Z,1.80
2018-12-30T14:37:00.492Z,2.07
2018-12-30T14:39:28.865Z,1.47
2018-12-30T14:41:57.280Z,1.90
2018-12-30T14:44:25.855Z,1.70
2018-12-30T14:46:54.443Z,1.70
2018-12-30T14:49:23.287Z,1.77
2018-12-30T14:51:51.712Z,2.07
2018-12-30T14:54:20.177Z,2.57
2018-12-30T14:56:48.810Z,2.03
2018-12-30T14:59:17.178Z,1.37
2018-12-30T15:01:45.609Z,1.80
2018-12-30T15:04:14.013Z,1.97
2018-12-30T15:06:42.400Z,2.70
2018-12-30T15:09:10.929Z,1.80
2018-12-30T15:11:39.428Z,1.60
2018-12-30T15:14:07.839Z,2.30
2018-12-30T15:16:36.298Z,1.97
2018-12-30T15:19:04.861Z,1.37
2018-12-30T15:21:33.267Z,1.73
2018-12-30T15:24:01.739Z,1.80
2018-12-30T15:26:32.955Z,2.67
2018-12-30T15:29:01.365Z,1.93
2018-12-30T15:31:29.789Z,1.77
2018-12-30T15:33:58.336Z,1.90
2018-12-30T15:36:26.726Z,2.13
2018-12-30T15:38:55.141Z,1.77
2018-12-30T15:41:23.609Z,2.30
2018-12-30T15:43:52.015Z,2.93
2018-12-30T15:46:20.522Z,2.67
2018-12-30T15:48:48.905Z,3.13
2018-12-30T15:51:17.304Z,3.17
2018-12-30T15:53:45.684Z,2.20
2018-12-30T15:56:14.419Z,2.17
2018-12-30T15:58:42.805Z,3.47
2018-12-30T16:01:11.299Z,2.70
2018-12-30T16:03:42.137Z,2.80
2018-12-30T16:06:10.588Z,2.10
2018-12-30T16:08:39.008Z,2.97
2018-12-30T16:11:07.600Z,7.07
2018-12-30T16:13:36.453Z,3.30
2018-12-30T16:16:04.873Z,3.63
2018-12-30T16:18:33.287Z,2.43
2018-12-30T16:21:01.982Z,3.07
2018-12-30T16:23:36.746Z,3.67
2018-12-30T16:26:06.923Z,6.13
2018-12-30T16:28:35.364Z,3.23
2018-12-30T16:31:03.855Z,5.10
2018-12-30T16:33:32.637Z,3.87
2018-12-30T16:36:01.059Z,3.37
2018-12-30T16:38:29.673Z,2.40
2018-12-30T16:40:58.130Z,3.43
2018-12-30T16:43:26.614Z,2.60
2018-12-30T16:45:55.010Z,2.03
2018-12-30T16:48:23.390Z,2.10
2018-12-30T16:50:51.805Z,2.47
2018-12-30T16:53:20.324Z,2.70
2018-12-30T16:55:48.705Z,2.13
2018-12-30T16:58:17.280Z,3.30
2018-12-30T17:00:45.920Z,2.27
2018-12-30T17:03:14.372Z,2.17
2018-12-30T17:05:42.899Z,4.40
2018-12-30T17:08:11.284Z,3.30
2018-12-30T17:10:39.671Z,2.17
2018-12-30T17:13:08.090Z,2.40
2018-12-30T17:15:46.647Z,1.90
2018-12-30T17:18:18.509Z,2.00
2018-12-30T17:20:50.498Z,1.93
2018-12-30T17:23:23.136Z,2.27
2018-12-30T17:25:57.416Z,2.37
2018-12-30T17:28:41.917Z,2.73
2018-12-30T17:31:17.682Z,2.50
2018-12-30T17:33:54.253Z,3.20
2018-12-30T17:36:26.236Z,2.67
2018-12-30T17:39:02.259Z,2.40
2018-12-30T17:41:35.269Z,13.50
2018-12-30T17:44:09.974Z,15.67
2018-12-30T17:46:38.973Z,12.10
2018-12-30T17:49:07.404Z,7.73
2018-12-30T17:51:35.851Z,4.60
2018-12-30T17:54:04.241Z,3.80
2018-12-30T17:56:32.701Z,4.27
2018-12-30T17:59:10.416Z,3.47
2018-12-30T18:01:39.091Z,2.87
2018-12-30T18:04:07.524Z,2.93
2018-12-30T18:06:36.214Z,3.93
2018-12-30T18:09:05.784Z,3.47
2018-12-30T18:11:34.198Z,3.63
2018-12-30T18:14:02.698Z,3.53
2018-12-30T18:16:31.191Z,3.70
2018-12-30T18:18:59.618Z,2.57
2018-12-30T18:21:28.034Z,4.70
2018-12-30T18:23:56.423Z,4.43
2018-12-30T18:26:24.892Z,4.07
2018-12-30T18:28:53.380Z,7.10
2018-12-30T18:31:21.823Z,4.63
2018-12-30T18:33:50.235Z,4.67
2018-12-30T18:36:18.620Z,6.37
2018-12-30T18:38:47.117Z,4.23
2018-12-30T18:41:15.558Z,4.03
2018-12-30T18:43:43.943Z,4.17
2018-12-30T18:46:12.734Z,3.60
2018-12-30T18:48:41.481Z,3.60
2018-12-30T18:51:09.897Z,3.13
2018-12-30T18:53:38.404Z,2.60
2018-12-30T18:56:07.238Z,2.50
2018-12-30T18:58:35.811Z,3.17
2018-12-30T19:01:04.216Z,3.47
2018-12-30T19:03:32.745Z,3.10
2018-12-30T19:06:01.253Z,2.80
2018-12-30T19:08:30.561Z,2.50
2018-12-30T19:10:59.037Z,2.90
2018-12-30T19:13:27.616Z,3.63
2018-12-30T19:15:56.103Z,3.07
2018-12-30T19:18:24.559Z,3.57
2018-12-30T19:20:53.092Z,4.93
2018-12-30T19:23:21.524Z,5.23
2018-12-30T19:25:49.954Z,9.83
2018-12-30T19:28:19.525Z,4.87
2018-12-30T19:30:48.134Z,4.17
2018-12-30T19:33:16.539Z,3.70
2018-12-30T19:35:44.957Z,3.60
2018-12-30T19:38:13.391Z,3.90
2018-12-30T19:40:41.987Z,4.03
2018-12-30T19:43:10.469Z,3.67
2018-12-30T19:45:38.950Z,4.00
2018-12-30T19:48:07.407Z,3.83
2018-12-30T19:50:35.879Z,4.20
2018-12-30T19:53:04.422Z,4.17
2018-12-30T19:55:32.930Z,4.07
2018-12-30T19:58:01.445Z,4.60
2018-12-30T20:00:29.863Z,5.40
2018-12-30T20:02:58.567Z,4.33
2018-12-30T20:05:27.027Z,6.33
2018-12-30T20:07:55.444Z,3.70
2018-12-30T20:10:23.926Z,6.63
2018-12-30T20:12:52.514Z,6.00
2018-12-30T20:15:21.681Z,8.40
2018-12-30T20:17:50.240Z,5.33
2018-12-30T20:20:18.739Z,4.30
2018-12-30T20:22:47.323Z,4.40
2018-12-30T20:25:15.916Z,5.43
2018-12-30T20:27:45.441Z,4.37
2018-12-30T20:30:14.058Z,5.43
2018-12-30T20:32:42.600Z,4.30
2018-12-30T20:35:11.216Z,6.60
2018-12-30T20:37:39.741Z,4.53
2018-12-30T20:40:08.441Z,4.43
2018-12-30T20:42:37.150Z,6.07
2018-12-30T20:45:05.836Z,5.13
2018-12-30T20:47:34.649Z,8.57
2018-12-30T20:50:03.357Z,4.17
2018-12-30T20:52:31.998Z,4.13
2018-12-30T20:55:00.567Z,5.13
2018-12-30T20:57:29.133Z,4.33
2018-12-30T20:59:57.655Z,6.43
2018-12-30T21:02:26.138Z,4.93
2018-12-30T21:04:54.926Z,3.50
2018-12-30T21:07:23.461Z,4.57
2018-12-30T21:09:52.086Z,3.80
2018-12-30T21:12:20.728Z,4.40
2018-12-30T21:14:49.299Z,3.40
2018-12-30T21:17:17.987Z,3.90
2018-12-30T21:19:46.497Z,3.63
2018-12-30T21:22:15.095Z,3.63
2018-12-30T21:24:43.670Z,3.23
2018-12-30T21:27:12.131Z,4.57
2018-12-30T21:29:40.732Z,4.00
2018-12-30T21:32:09.185Z,6.20
2018-12-30T21:34:37.641Z,4.27
2018-12-30T21:37:06.258Z,4.97
2018-12-30T21:39:34.950Z,5.47
2018-12-30T21:42:03.414Z,4.90
2018-12-30T21:44:34.130Z,5.10
2018-12-30T21:47:05.069Z,5.57
2018-12-30T21:49:33.879Z,4.70
2018-12-30T21:52:02.417Z,4.77
2018-12-30T21:54:30.825Z,4.97
2018-12-30T21:56:59.327Z,5.23
2018-12-30T21:59:27.724Z,5.03
2018-12-30T22:01:56.157Z,5.27
2018-12-30T22:04:24.618Z,4.30
2018-12-30T22:06:53.044Z,4.27
2018-12-30T22:09:21.477Z,4.23
2018-12-30T22:11:49.953Z,3.80
2018-12-30T22:14:18.347Z,4.20
2018-12-30T22:16:46.846Z,4.20
2018-12-30T22:19:15.417Z,4.77
2018-12-30T22:21:43.829Z,4.80
2018-12-30T22:24:12.325Z,4.27
2018-12-30T22:26:40.725Z,3.77
2018-12-30T22:29:09.229Z,4.03
2018-12-30T22:31:37.632Z,4.60
2018-12-30T22:34:06.075Z,4.27
2018-12-30T22:36:34.470Z,4.50
2018-12-30T22:39:05.635Z,4.13
2018-12-30T22:41:34.152Z,3.83
2018-12-30T22:44:02.796Z,4.83
2018-12-30T22:46:31.215Z,4.40
2018-12-30T22:48:59.619Z,4.80
2018-12-30T22:51:28.397Z,4.30
2018-12-30T22:53:56.805Z,4.20
2018-12-30T22:56:25.254Z,4.53
2018-12-30T22:58:53.746Z,4.07
2018-12-30T23:01:26.227Z,3.77
2018-12-30T23:03:54.732Z,4.80
2018-12-30T23:06:23.254Z,4.03
2018-12-30T23:08:51.871Z,4.43
2018-12-30T23:11:20.439Z,4.07
2018-12-30T23:13:48.839Z,4.57
2018-12-30T23:16:17.220Z,5.30
2018-12-30T23:18:47.316Z,6.00
2018-12-30T23:21:15.720Z,4.90
2018-12-30T23:23:44.081Z,4.80
2018-12-30T23:26:12.523Z,5.00
2018-12-30T23:28:40.951Z,4.80
2018-12-30T23:31:09.412Z,4.97
2018-12-30T23:33:37.861Z,4.80
2018-12-30T23:36:09.027Z,4.40
2018-12-30T23:38:38.766Z,4.27
2018-12-30T23:41:07.899Z,4.37
2018-12-30T23:43:38.434Z,5.77
2018-12-30T23:46:09.960Z,5.27
2018-12-30T23:48:47.252Z,4.77
2018-12-30T23:51:15.661Z,5.77
2018-12-30T23:53:44.268Z,5.10
2018-12-30T23:56:12.673Z,5.20
2018-12-30T23:58:41.914Z,4.63
